sensor_id;sensor_type;location;lat;lon;timestamp;pressure;altitude;pressure_sealevel;temperature;humidity
36010;BME280;22076;52.182;5.404;2024-01-06T00:00:10;100689.28;;;13.10;100.00
36010;BME280;22076;52.182;5.404;2024-01-06T00:02:38;100689.38;;;13.09;100.00
36010;BME280;22076;52.182;5.404;2024-01-06T00:05:06;100697.56;;;12.91;100.00
36010;BME280;22076;52.182;5.404;2024-01-06T00:07:32;100695.13;;;12.62;100.00
36010;BME280;22076;52.182;5.404;2024-01-06T00:09:59;100697.13;;;12.71;100.00
36010;BME280;22076;52.182;5.404;2024-01-06T00:12:25;100705.91;;;12.45;100.00
36010;BME280;22076;52.182;5.404;2024-01-06T00:14:52;100697.97;;;12.59;100.00
36010;BME280;22076;52.182;5.404;2024-01-06T00:17:18;100702.69;;;12.54;100.00
36010;BME280;22076;52.182;5.404;2024-01-06T00:19:47;100720.84;;;12.70;100.00
36010;BME280;22076;52.182;5.404;2024-01-06T00:22:16;100722.94;;;12.25;100.00
36010;BME280;22076;52.182;5.404;2024-01-06T00:24:42;100721.31;;;12.49;100.00
36010;BME280;22076;52.182;5.404;2024-01-06T00:27:09;100729.41;;;12.59;100.00
36010;BME280;22076;52.182;5.404;2024-01-06T00:29:35;61557.44;;;-145.85;100.00
36010;BME280;22076;52.182;5.404;2024-01-06T00:32:02;61557.44;;;-145.85;100.00
36010;BME280;22076;52.182;5.404;2024-01-06T00:34:28;61557.44;;;-145.85;100.00
36010;BME280;22076;52.182;5.404;2024-01-06T00:36:56;61557.44;;;-145.85;100.00
36010;BME280;22076;52.182;5.404;2024-01-06T00:39:23;61557.44;;;-145.85;100.00
36010;BME280;22076;52.182;5.404;2024-01-06T00:41:49;61557.44;;;-145.85;100.00
36010;BME280;22076;52.182;5.404;2024-01-06T00:44:16;61557.44;;;-145.85;100.00
36010;BME280;22076;52.182;5.404;2024-01-06T00:46:42;61557.44;;;-145.85;100.00
36010;BME280;22076;52.182;5.404;2024-01-06T00:49:09;61557.44;;;-145.85;100.00
36010;BME280;22076;52.182;5.404;2024-01-06T00:51:35;61557.44;;;-145.85;100.00
36010;BME280;22076;52.182;5.404;2024-01-06T00:54:03;61557.44;;;-145.85;100.00
36010;BME280;22076;52.182;5.404;2024-01-06T00:56:31;61557.44;;;-145.85;100.00
36010;BME280;22076;52.182;5.404;2024-01-06T00:58:57;61557.44;;;-145.85;100.00
36010;BME280;22076;52.182;5.404;2024-01-06T01:01:24;61557.44;;;-145.85;100.00
36010;BME280;22076;52.182;5.404;2024-01-06T01:03:50;61557.44;;;-145.85;100.00
36010;BME280;22076;52.182;5.404;2024-01-06T01:06:17;61557.44;;;-145.85;100.00
36010;BME280;22076;52.182;5.404;2024-01-06T01:08:43;61557.44;;;-145.85;100.00
36010;BME280;22076;52.182;5.404;2024-01-06T01:11:11;61557.44;;;-145.85;100.00
36010;BME280;22076;52.182;5.404;2024-01-06T01:13:38;61557.44;;;-145.85;100.00
36010;BME280;22076;52.182;5.404;2024-01-06T01:16:05;61557.44;;;-145.85;100.00
36010;BME280;22076;52.182;5.404;2024-01-06T01:18:31;61557.44;;;-145.85;100.00
36010;BME280;22076;52.182;5.404;2024-01-06T01:20:58;61557.44;;;-145.85;100.00
36010;BME280;22076;52.182;5.404;2024-01-06T01:23:24;61557.44;;;-145.85;100.00
36010;BME280;22076;52.182;5.404;2024-01-06T01:25:51;61557.44;;;-145.85;100.00
36010;BME280;22076;52.182;5.404;2024-01-06T01:28:19;61557.44;;;-145.85;100.00
36010;BME280;22076;52.182;5.404;2024-01-06T01:30:46;61557.44;;;-145.85;100.00
36010;BME280;22076;52.182;5.404;2024-01-06T01:33:14;61557.44;;;-145.85;100.00
36010;BME280;22076;52.182;5.404;2024-01-06T01:35:41;61557.44;;;-145.85;100.00
36010;BME280;22076;52.182;5.404;2024-01-06T01:38:07;61557.44;;;-145.85;100.00
36010;BME280;22076;52.182;5.404;2024-01-06T01:40:34;61557.44;;;-145.85;100.00
36010;BME280;22076;52.182;5.404;2024-01-06T01:43:00;61557.44;;;-145.85;100.00
36010;BME280;22076;52.182;5.404;2024-01-06T01:45:28;61557.44;;;-145.85;100.00
36010;BME280;22076;52.182;5.404;2024-01-06T01:47:55;61557.44;;;-145.85;100.00
36010;BME280;22076;52.182;5.404;2024-01-06T01:50:22;61557.44;;;-145.85;100.00
36010;BME280;22076;52.182;5.404;2024-01-06T01:52:50;61557.44;;;-145.85;100.00
36010;BME280;22076;52.182;5.404;2024-01-06T01:55:17;61557.44;;;-145.85;100.00
36010;BME280;22076;52.182;5.404;2024-01-06T01:57:44;61557.44;;;-145.85;100.00
36010;BME280;22076;52.182;5.404;2024-01-06T02:00:11;61557.44;;;-145.85;100.00
36010;BME280;22076;52.182;5.404;2024-01-06T02:02:40;61557.44;;;-145.85;100.00
36010;BME280;22076;52.182;5.404;2024-01-06T02:05:06;61557.44;;;-145.85;100.00
36010;BME280;22076;52.182;5.404;2024-01-06T02:07:34;61557.44;;;-145.85;100.00
36010;BME280;22076;52.182;5.404;2024-01-06T02:10:00;61557.44;;;-145.85;100.00
36010;BME280;22076;52.182;5.404;2024-01-06T02:12:27;61557.44;;;-145.85;100.00
36010;BME280;22076;52.182;5.404;2024-01-06T02:14:54;61557.44;;;-145.85;100.00
36010;BME280;22076;52.182;5.404;2024-01-06T02:17:20;61557.44;;;-145.85;100.00
36010;BME280;22076;52.182;5.404;2024-01-06T02:19:48;61557.44;;;-145.85;100.00
36010;BME280;22076;52.182;5.404;2024-01-06T02:22:16;61557.44;;;-145.85;100.00
36010;BME280;22076;52.182;5.404;2024-01-06T02:24:42;61557.44;;;-145.85;100.00
36010;BME280;22076;52.182;5.404;2024-01-06T02:27:09;61557.44;;;-145.85;100.00
36010;BME280;22076;52.182;5.404;2024-01-06T02:29:35;61557.44;;;-145.85;100.00
36010;BME280;22076;52.182;5.404;2024-01-06T02:32:02;61557.44;;;-145.85;100.00
36010;BME280;22076;52.182;5.404;2024-01-06T02:34:29;61557.44;;;-145.85;100.00
36010;BME280;22076;52.182;5.404;2024-01-06T02:36:56;61557.44;;;-145.85;100.00
36010;BME280;22076;52.182;5.404;2024-01-06T02:39:24;61557.44;;;-145.85;100.00
36010;BME280;22076;52.182;5.404;2024-01-06T02:41:50;61557.44;;;-145.85;100.00
36010;BME280;22076;52.182;5.404;2024-01-06T02:44:17;61557.44;;;-145.85;100.00
36010;BME280;22076;52.182;5.404;2024-01-06T02:46:43;61557.44;;;-145.85;100.00
36010;BME280;22076;52.182;5.404;2024-01-06T02:49:10;61557.44;;;-145.85;100.00
36010;BME280;22076;52.182;5.404;2024-01-06T02:51:36;61557.44;;;-145.85;100.00
36010;BME280;22076;52.182;5.404;2024-01-06T02:54:03;61557.44;;;-145.85;100.00
36010;BME280;22076;52.182;5.404;2024-01-06T02:56:31;61557.44;;;-145.85;100.00
36010;BME280;22076;52.182;5.404;2024-01-06T02:58:57;61557.44;;;-145.85;100.00
36010;BME280;22076;52.182;5.404;2024-01-06T03:01:24;61557.44;;;-145.85;100.00
36010;BME280;22076;52.182;5.404;2024-01-06T03:03:50;61557.44;;;-145.85;100.00
36010;BME280;22076;52.182;5.404;2024-01-06T03:06:16;61557.44;;;-145.85;100.00
36010;BME280;22076;52.182;5.404;2024-01-06T03:08:42;61557.44;;;-145.85;100.00
36010;BME280;22076;52.182;5.404;2024-01-06T03:11:10;61557.44;;;-145.85;100.00
36010;BME280;22076;52.182;5.404;2024-01-06T03:13:38;61557.44;;;-145.85;100.00
36010;BME280;22076;52.182;5.404;2024-01-06T03:16:04;61557.44;;;-145.85;100.00
36010;BME280;22076;52.182;5.404;2024-01-06T03:18:31;61557.44;;;-145.85;100.00
36010;BME280;22076;52.182;5.404;2024-01-06T03:20:57;61557.44;;;-145.85;100.00
36010;BME280;22076;52.182;5.404;2024-01-06T03:23:24;61557.44;;;-145.85;100.00
36010;BME280;22076;52.182;5.404;2024-01-06T03:25:50;61557.44;;;-145.85;100.00
36010;BME280;22076;52.182;5.404;2024-01-06T03:28:17;61557.44;;;-145.85;100.00
36010;BME280;22076;52.182;5.404;2024-01-06T03:30:45;61557.44;;;-145.85;100.00
36010;BME280;22076;52.182;5.404;2024-01-06T03:33:11;61557.44;;;-145.85;100.00
36010;BME280;22076;52.182;5.404;2024-01-06T03:35:38;61557.44;;;-145.85;100.00
36010;BME280;22076;52.182;5.404;2024-01-06T03:38:05;61557.44;;;-145.85;100.00
36010;BME280;22076;52.182;5.404;2024-01-06T03:40:31;61557.44;;;-145.85;100.00
36010;BME280;22076;52.182;5.404;2024-01-06T03:42:58;61557.44;;;-145.85;100.00
36010;BME280;22076;52.182;5.404;2024-01-06T03:45:25;61557.44;;;-145.85;100.00
36010;BME280;22076;52.182;5.404;2024-01-06T03:47:53;61557.44;;;-145.85;100.00
36010;BME280;22076;52.182;5.404;2024-01-06T03:50:19;61557.44;;;-145.85;100.00
36010;BME280;22076;52.182;5.404;2024-01-06T03:52:46;61557.44;;;-145.85;100.00
36010;BME280;22076;52.182;5.404;2024-01-06T03:55:14;61557.44;;;-145.85;100.00
36010;BME280;22076;52.182;5.404;2024-01-06T03:57:40;61557.44;;;-145.85;100.00
36010;BME280;22076;52.182;5.404;2024-01-06T04:00:08;61557.44;;;-145.85;100.00
36010;BME280;22076;52.182;5.404;2024-01-06T04:02:35;61557.44;;;-145.85;100.00
36010;BME280;22076;52.182;5.404;2024-01-06T04:05:03;61557.44;;;-145.85;100.00
36010;BME280;22076;52.182;5.404;2024-01-06T04:07:30;61557.44;;;-145.85;100.00
36010;BME280;22076;52.182;5.404;2024-01-06T04:09:57;61557.44;;;-145.85;100.00
36010;BME280;22076;52.182;5.404;2024-01-06T04:12:23;61557.44;;;-145.85;100.00
36010;BME280;22076;52.182;5.404;2024-01-06T04:14:50;61557.44;;;-145.85;100.00
36010;BME280;22076;52.182;5.404;2024-01-06T04:17:17;61557.44;;;-145.85;100.00
36010;BME280;22076;52.182;5.404;2024-01-06T04:19:46;61557.44;;;-145.85;100.00
36010;BME280;22076;52.182;5.404;2024-01-06T04:22:14;61557.44;;;-145.85;100.00
36010;BME280;22076;52.182;5.404;2024-01-06T04:24:41;61557.44;;;-145.85;100.00
36010;BME280;22076;52.182;5.404;2024-01-06T04:27:07;61557.44;;;-145.85;100.00
36010;BME280;22076;52.182;5.404;2024-01-06T04:29:35;61557.44;;;-145.85;100.00
36010;BME280;22076;52.182;5.404;2024-01-06T04:32:02;61557.44;;;-145.85;100.00
36010;BME280;22076;52.182;5.404;2024-01-06T04:34:28;61557.44;;;-145.85;100.00
36010;BME280;22076;52.182;5.404;2024-01-06T04:36:55;61557.44;;;-145.85;100.00
36010;BME280;22076;52.182;5.404;2024-01-06T04:39:23;61557.44;;;-145.85;100.00
36010;BME280;22076;52.182;5.404;2024-01-06T04:41:49;61557.44;;;-145.85;100.00
36010;BME280;22076;52.182;5.404;2024-01-06T04:44:17;61557.44;;;-145.85;100.00
36010;BME280;22076;52.182;5.404;2024-01-06T04:46:44;61557.44;;;-145.85;100.00
36010;BME280;22076;52.182;5.404;2024-01-06T04:49:10;61557.44;;;-145.85;100.00
36010;BME280;22076;52.182;5.404;2024-01-06T04:51:36;61557.44;;;-145.85;100.00
36010;BME280;22076;52.182;5.404;2024-01-06T04:54:03;61557.44;;;-145.85;100.00
36010;BME280;22076;52.182;5.404;2024-01-06T04:56:31;61557.44;;;-145.85;100.00
36010;BME280;22076;52.182;5.404;2024-01-06T04:58:57;61557.44;;;-145.85;100.00
36010;BME280;22076;52.182;5.404;2024-01-06T05:01:24;61557.44;;;-145.85;100.00
36010;BME280;22076;52.182;5.404;2024-01-06T05:03:50;61557.44;;;-145.85;100.00
36010;BME280;22076;52.182;5.404;2024-01-06T05:06:17;61557.44;;;-145.85;100.00
36010;BME280;22076;52.182;5.404;2024-01-06T05:08:43;61557.44;;;-145.85;100.00
36010;BME280;22076;52.182;5.404;2024-01-06T05:11:10;61557.44;;;-145.85;100.00
36010;BME280;22076;52.182;5.404;2024-01-06T05:13:38;61557.44;;;-145.85;100.00
36010;BME280;22076;52.182;5.404;2024-01-06T05:16:06;61557.44;;;-145.85;100.00
36010;BME280;22076;52.182;5.404;2024-01-06T05:18:33;61557.44;;;-145.85;100.00
36010;BME280;22076;52.182;5.404;2024-01-06T05:21:00;61557.44;;;-145.85;100.00
36010;BME280;22076;52.182;5.404;2024-01-06T05:23:28;61557.44;;;-145.85;100.00
36010;BME280;22076;52.182;5.404;2024-01-06T05:25:55;61557.44;;;-145.85;100.00
36010;BME280;22076;52.182;5.404;2024-01-06T05:28:21;61557.44;;;-145.85;100.00
36010;BME280;22076;52.182;5.404;2024-01-06T05:30:49;61557.44;;;-145.85;100.00
36010;BME280;22076;52.182;5.404;2024-01-06T05:33:16;61557.44;;;-145.85;100.00
36010;BME280;22076;52.182;5.404;2024-01-06T05:35:42;61557.44;;;-145.85;100.00
36010;BME280;22076;52.182;5.404;2024-01-06T05:38:09;61557.44;;;-145.85;100.00
36010;BME280;22076;52.182;5.404;2024-01-06T05:40:35;61557.44;;;-145.85;100.00
36010;BME280;22076;52.182;5.404;2024-01-06T05:43:02;61557.44;;;-145.85;100.00
36010;BME280;22076;52.182;5.404;2024-01-06T05:45:28;61557.44;;;-145.85;100.00
36010;BME280;22076;52.182;5.404;2024-01-06T05:47:56;61557.44;;;-145.85;100.00
36010;BME280;22076;52.182;5.404;2024-01-06T05:50:23;61557.44;;;-145.85;100.00
36010;BME280;22076;52.182;5.404;2024-01-06T05:52:49;61557.44;;;-145.85;100.00
36010;BME280;22076;52.182;5.404;2024-01-06T05:55:17;61557.44;;;-145.85;100.00
36010;BME280;22076;52.182;5.404;2024-01-06T05:57:43;61557.44;;;-145.85;100.00
36010;BME280;22076;52.182;5.404;2024-01-06T06:00:11;61557.44;;;-145.85;100.00
36010;BME280;22076;52.182;5.404;2024-01-06T06:02:38;61557.44;;;-145.85;100.00
36010;BME280;22076;52.182;5.404;2024-01-06T06:05:07;61557.44;;;-145.85;100.00
36010;BME280;22076;52.182;5.404;2024-01-06T06:07:33;61557.44;;;-145.85;100.00
36010;BME280;22076;52.182;5.404;2024-01-06T06:10:05;61557.44;;;-145.85;100.00
36010;BME280;22076;52.182;5.404;2024-01-06T06:12:32;61557.44;;;-145.85;100.00
36010;BME280;22076;52.182;5.404;2024-01-06T06:14:59;61557.44;;;-145.85;100.00
36010;BME280;22076;52.182;5.404;2024-01-06T06:17:25;61557.44;;;-145.85;100.00
36010;BME280;22076;52.182;5.404;2024-01-06T06:19:52;61557.44;;;-145.85;100.00
36010;BME280;22076;52.182;5.404;2024-01-06T06:22:19;61557.44;;;-145.85;100.00
36010;BME280;22076;52.182;5.404;2024-01-06T06:24:47;61557.44;;;-145.85;100.00
36010;BME280;22076;52.182;5.404;2024-01-06T06:27:13;61557.44;;;-145.85;100.00
36010;BME280;22076;52.182;5.404;2024-01-06T06:29:40;61557.44;;;-145.85;100.00
36010;BME280;22076;52.182;5.404;2024-01-06T06:32:06;61557.44;;;-145.85;100.00
36010;BME280;22076;52.182;5.404;2024-01-06T06:34:33;61557.44;;;-145.85;100.00
36010;BME280;22076;52.182;5.404;2024-01-06T06:36:59;61557.44;;;-145.85;100.00
36010;BME280;22076;52.182;5.404;2024-01-06T06:39:27;61557.44;;;-145.85;100.00
36010;BME280;22076;52.182;5.404;2024-01-06T06:41:55;61557.44;;;-145.85;100.00
36010;BME280;22076;52.182;5.404;2024-01-06T06:44:21;61557.44;;;-145.85;100.00
36010;BME280;22076;52.182;5.404;2024-01-06T06:46:49;61557.44;;;-145.85;100.00
36010;BME280;22076;52.182;5.404;2024-01-06T06:49:15;61557.44;;;-145.85;100.00
36010;BME280;22076;52.182;5.404;2024-01-06T06:51:42;61557.44;;;-145.85;100.00
36010;BME280;22076;52.182;5.404;2024-01-06T06:54:12;61557.44;;;-145.85;100.00
36010;BME280;22076;52.182;5.404;2024-01-06T06:56:40;61557.44;;;-145.85;100.00
36010;BME280;22076;52.182;5.404;2024-01-06T06:59:06;61557.44;;;-145.85;100.00
36010;BME280;22076;52.182;5.404;2024-01-06T07:01:33;61557.44;;;-145.85;100.00
36010;BME280;22076;52.182;5.404;2024-01-06T07:04:00;61557.44;;;-145.85;100.00
36010;BME280;22076;52.182;5.404;2024-01-06T07:06:27;61557.44;;;-145.85;100.00
36010;BME280;22076;52.182;5.404;2024-01-06T07:08:53;61557.44;;;-145.85;100.00
36010;BME280;22076;52.182;5.404;2024-01-06T07:11:22;61557.44;;;-145.85;100.00
36010;BME280;22076;52.182;5.404;2024-01-06T07:13:50;61557.44;;;-145.85;100.00
36010;BME280;22076;52.182;5.404;2024-01-06T07:16:17;61557.44;;;-145.85;100.00
36010;BME280;22076;52.182;5.404;2024-01-06T07:18:43;61557.44;;;-145.85;100.00
36010;BME280;22076;52.182;5.404;2024-01-06T07:21:11;61557.44;;;-145.85;100.00
36010;BME280;22076;52.182;5.404;2024-01-06T07:23:38;61557.44;;;-145.85;100.00
36010;BME280;22076;52.182;5.404;2024-01-06T07:26:04;61557.44;;;-145.85;100.00
36010;BME280;22076;52.182;5.404;2024-01-06T07:28:31;61557.44;;;-145.85;100.00
36010;BME280;22076;52.182;5.404;2024-01-06T07:31:00;61557.44;;;-145.85;100.00
36010;BME280;22076;52.182;5.404;2024-01-06T07:33:26;61557.44;;;-145.85;100.00
36010;BME280;22076;52.182;5.404;2024-01-06T07:35:53;61557.44;;;-145.85;100.00
36010;BME280;22076;52.182;5.404;2024-01-06T07:38:20;61557.44;;;-145.85;100.00
36010;BME280;22076;52.182;5.404;2024-01-06T07:40:46;61557.44;;;-145.85;100.00
36010;BME280;22076;52.182;5.404;2024-01-06T07:43:14;61557.44;;;-145.85;100.00
36010;BME280;22076;52.182;5.404;2024-01-06T07:45:41;61557.44;;;-145.85;100.00
36010;BME280;22076;52.182;5.404;2024-01-06T07:48:09;61557.44;;;-145.85;100.00
36010;BME280;22076;52.182;5.404;2024-01-06T07:50:35;61557.44;;;-145.85;100.00
36010;BME280;22076;52.182;5.404;2024-01-06T07:53:04;61557.44;;;-145.85;100.00
36010;BME280;22076;52.182;5.404;2024-01-06T07:55:30;61557.44;;;-145.85;100.00
36010;BME280;22076;52.182;5.404;2024-01-06T07:57:57;61557.44;;;-145.85;100.00
36010;BME280;22076;52.182;5.404;2024-01-06T08:00:23;61557.44;;;-145.85;100.00
36010;BME280;22076;52.182;5.404;2024-01-06T08:02:50;61557.44;;;-145.85;100.00
36010;BME280;22076;52.182;5.404;2024-01-06T08:05:18;61557.44;;;-145.85;100.00
36010;BME280;22076;52.182;5.404;2024-01-06T08:07:45;61557.44;;;-145.85;100.00
36010;BME280;22076;52.182;5.404;2024-01-06T08:10:11;61557.44;;;-145.85;100.00
36010;BME280;22076;52.182;5.404;2024-01-06T08:12:38;61557.44;;;-145.85;100.00
36010;BME280;22076;52.182;5.404;2024-01-06T08:15:05;61557.44;;;-145.85;100.00
36010;BME280;22076;52.182;5.404;2024-01-06T08:17:33;61557.44;;;-145.85;100.00
36010;BME280;22076;52.182;5.404;2024-01-06T08:20:00;61557.44;;;-145.85;100.00
36010;BME280;22076;52.182;5.404;2024-01-06T08:22:28;61557.44;;;-145.85;100.00
36010;BME280;22076;52.182;5.404;2024-01-06T08:24:54;61557.44;;;-145.85;100.00
36010;BME280;22076;52.182;5.404;2024-01-06T08:27:21;61557.44;;;-145.85;100.00
36010;BME280;22076;52.182;5.404;2024-01-06T08:29:49;61557.44;;;-145.85;100.00
36010;BME280;22076;52.182;5.404;2024-01-06T08:32:15;61557.44;;;-145.85;100.00
36010;BME280;22076;52.182;5.404;2024-01-06T08:34:42;61557.44;;;-145.85;100.00
36010;BME280;22076;52.182;5.404;2024-01-06T08:37:08;61557.44;;;-145.85;100.00
36010;BME280;22076;52.182;5.404;2024-01-06T08:39:37;61557.44;;;-145.85;100.00
36010;BME280;22076;52.182;5.404;2024-01-06T08:42:04;61557.44;;;-145.85;100.00
36010;BME280;22076;52.182;5.404;2024-01-06T08:44:31;61557.44;;;-145.85;100.00
36010;BME280;22076;52.182;5.404;2024-01-06T08:46:57;61557.44;;;-145.85;100.00
36010;BME280;22076;52.182;5.404;2024-01-06T08:49:24;61557.44;;;-145.85;100.00
36010;BME280;22076;52.182;5.404;2024-01-06T08:51:50;61557.44;;;-145.85;100.00
36010;BME280;22076;52.182;5.404;2024-01-06T08:54:17;61557.44;;;-145.85;100.00
36010;BME280;22076;52.182;5.404;2024-01-06T08:56:45;61557.44;;;-145.85;100.00
36010;BME280;22076;52.182;5.404;2024-01-06T08:59:12;61557.44;;;-145.85;100.00
36010;BME280;22076;52.182;5.404;2024-01-06T09:01:39;61557.44;;;-145.85;100.00
36010;BME280;22076;52.182;5.404;2024-01-06T09:04:05;61557.44;;;-145.85;100.00
36010;BME280;22076;52.182;5.404;2024-01-06T09:06:32;61557.44;;;-145.85;100.00
36010;BME280;22076;52.182;5.404;2024-01-06T09:08:59;61557.44;;;-145.85;100.00
36010;BME280;22076;52.182;5.404;2024-01-06T09:11:26;61557.44;;;-145.85;100.00
36010;BME280;22076;52.182;5.404;2024-01-06T09:13:53;61557.44;;;-145.85;100.00
36010;BME280;22076;52.182;5.404;2024-01-06T09:16:20;61557.44;;;-145.85;100.00
36010;BME280;22076;52.182;5.404;2024-01-06T09:18:47;61557.44;;;-145.85;100.00
36010;BME280;22076;52.182;5.404;2024-01-06T09:21:14;61557.44;;;-145.85;100.00
36010;BME280;22076;52.182;5.404;2024-01-06T09:23:42;61557.44;;;-145.85;100.00
36010;BME280;22076;52.182;5.404;2024-01-06T09:26:09;61557.44;;;-145.85;100.00
36010;BME280;22076;52.182;5.404;2024-01-06T09:28:35;61557.44;;;-145.85;100.00
36010;BME280;22076;52.182;5.404;2024-01-06T09:31:03;61557.44;;;-145.85;100.00
36010;BME280;22076;52.182;5.404;2024-01-06T09:33:30;61557.44;;;-145.85;100.00
36010;BME280;22076;52.182;5.404;2024-01-06T09:35:59;61557.44;;;-145.85;100.00
36010;BME280;22076;52.182;5.404;2024-01-06T09:38:25;61557.44;;;-145.85;100.00
36010;BME280;22076;52.182;5.404;2024-01-06T09:40:53;61557.44;;;-145.85;100.00
36010;BME280;22076;52.182;5.404;2024-01-06T09:43:20;61557.44;;;-145.85;100.00
36010;BME280;22076;52.182;5.404;2024-01-06T09:45:51;61557.44;;;-145.85;100.00
36010;BME280;22076;52.182;5.404;2024-01-06T09:48:22;61557.44;;;-145.85;100.00
36010;BME280;22076;52.182;5.404;2024-01-06T09:50:56;61557.44;;;-145.85;100.00
36010;BME280;22076;52.182;5.404;2024-01-06T09:53:23;61557.44;;;-145.85;100.00
36010;BME280;22076;52.182;5.404;2024-01-06T09:55:55;61557.44;;;-145.85;100.00
36010;BME280;22076;52.182;5.404;2024-01-06T09:58:22;61557.44;;;-145.85;100.00
36010;BME280;22076;52.182;5.404;2024-01-06T10:00:48;61557.44;;;-145.85;100.00
36010;BME280;22076;52.182;5.404;2024-01-06T10:03:15;61557.44;;;-145.85;100.00
36010;BME280;22076;52.182;5.404;2024-01-06T10:05:43;61557.44;;;-145.85;100.00
36010;BME280;22076;52.182;5.404;2024-01-06T10:08:09;61557.44;;;-145.85;100.00
36010;BME280;22076;52.182;5.404;2024-01-06T10:10:37;61557.44;;;-145.85;100.00
36010;BME280;22076;52.182;5.404;2024-01-06T10:13:04;61557.44;;;-145.85;100.00
36010;BME280;22076;52.182;5.404;2024-01-06T10:15:31;61557.44;;;-145.85;100.00
36010;BME280;22076;52.182;5.404;2024-01-06T10:17:58;61557.44;;;-145.85;100.00
36010;BME280;22076;52.182;5.404;2024-01-06T10:20:25;61557.44;;;-145.85;100.00
36010;BME280;22076;52.182;5.404;2024-01-06T10:22:52;61557.44;;;-145.85;100.00
36010;BME280;22076;52.182;5.404;2024-01-06T10:25:23;61557.44;;;-145.85;100.00
36010;BME280;22076;52.182;5.404;2024-01-06T10:27:52;61557.44;;;-145.85;100.00
36010;BME280;22076;52.182;5.404;2024-01-06T10:30:19;61557.44;;;-145.85;100.00
36010;BME280;22076;52.182;5.404;2024-01-06T10:32:46;61557.44;;;-145.85;100.00
36010;BME280;22076;52.182;5.404;2024-01-06T10:35:12;61557.44;;;-145.85;100.00
36010;BME280;22076;52.182;5.404;2024-01-06T10:37:41;61557.44;;;-145.85;100.00
36010;BME280;22076;52.182;5.404;2024-01-06T10:40:12;61557.44;;;-145.85;100.00
36010;BME280;22076;52.182;5.404;2024-01-06T10:42:40;61557.44;;;-145.85;100.00
36010;BME280;22076;52.182;5.404;2024-01-06T10:45:08;61557.44;;;-145.85;100.00
36010;BME280;22076;52.182;5.404;2024-01-06T10:47:37;61557.44;;;-145.85;100.00
36010;BME280;22076;52.182;5.404;2024-01-06T10:50:05;61557.44;;;-145.85;100.00
36010;BME280;22076;52.182;5.404;2024-01-06T10:52:33;61557.44;;;-145.85;100.00
36010;BME280;22076;52.182;5.404;2024-01-06T10:55:01;61557.44;;;-145.85;100.00
36010;BME280;22076;52.182;5.404;2024-01-06T10:57:30;61557.44;;;-145.85;100.00
36010;BME280;22076;52.182;5.404;2024-01-06T10:59:58;61557.44;;;-145.85;100.00
36010;BME280;22076;52.182;5.404;2024-01-06T11:02:29;61557.44;;;-145.85;100.00
36010;BME280;22076;52.182;5.404;2024-01-06T11:05:03;61557.44;;;-145.85;100.00
36010;BME280;22076;52.182;5.404;2024-01-06T11:07:33;61557.44;;;-145.85;100.00
36010;BME280;22076;52.182;5.404;2024-01-06T11:10:06;61557.44;;;-145.85;100.00
36010;BME280;22076;52.182;5.404;2024-01-06T11:12:36;61557.44;;;-145.85;100.00
36010;BME280;22076;52.182;5.404;2024-01-06T11:15:05;61557.44;;;-145.85;100.00
36010;BME280;22076;52.182;5.404;2024-01-06T11:17:50;61557.44;;;-145.85;100.00
36010;BME280;22076;52.182;5.404;2024-01-06T11:20:19;61557.44;;;-145.85;100.00
36010;BME280;22076;52.182;5.404;2024-01-06T11:22:47;61557.44;;;-145.85;100.00
36010;BME280;22076;52.182;5.404;2024-01-06T11:25:15;61557.44;;;-145.85;100.00
36010;BME280;22076;52.182;5.404;2024-01-06T11:27:44;61557.44;;;-145.85;100.00
36010;BME280;22076;52.182;5.404;2024-01-06T11:30:22;61557.44;;;-145.85;100.00
36010;BME280;22076;52.182;5.404;2024-01-06T11:32:50;61557.44;;;-145.85;100.00
36010;BME280;22076;52.182;5.404;2024-01-06T11:35:20;61557.44;;;-145.85;100.00
36010;BME280;22076;52.182;5.404;2024-01-06T11:37:54;61557.44;;;-145.85;100.00
36010;BME280;22076;52.182;5.404;2024-01-06T11:40:24;61557.44;;;-145.85;100.00
36010;BME280;22076;52.182;5.404;2024-01-06T11:43:00;61557.44;;;-145.85;100.00
36010;BME280;22076;52.182;5.404;2024-01-06T11:45:28;61557.44;;;-145.85;100.00
36010;BME280;22076;52.182;5.404;2024-01-06T11:47:58;61557.44;;;-145.85;100.00
36010;BME280;22076;52.182;5.404;2024-01-06T11:50:26;61557.44;;;-145.85;100.00
36010;BME280;22076;52.182;5.404;2024-01-06T11:52:54;61557.44;;;-145.85;100.00
36010;BME280;22076;52.182;5.404;2024-01-06T11:55:21;61557.44;;;-145.85;100.00
36010;BME280;22076;52.182;5.404;2024-01-06T11:57:48;61557.44;;;-145.85;100.00
36010;BME280;22076;52.182;5.404;2024-01-06T12:00:19;61557.44;;;-145.85;100.00
36010;BME280;22076;52.182;5.404;2024-01-06T12:02:55;61557.44;;;-145.85;100.00
36010;BME280;22076;52.182;5.404;2024-01-06T12:05:28;61557.44;;;-145.85;100.00
36010;BME280;22076;52.182;5.404;2024-01-06T12:07:56;61557.44;;;-145.85;100.00
36010;BME280;22076;52.182;5.404;2024-01-06T12:10:24;61557.44;;;-145.85;100.00
36010;BME280;22076;52.182;5.404;2024-01-06T12:13:00;61557.44;;;-145.85;100.00
36010;BME280;22076;52.182;5.404;2024-01-06T12:15:29;61557.44;;;-145.85;100.00
36010;BME280;22076;52.182;5.404;2024-01-06T12:17:58;61557.44;;;-145.85;100.00
36010;BME280;22076;52.182;5.404;2024-01-06T12:20:26;61557.44;;;-145.85;100.00
36010;BME280;22076;52.182;5.404;2024-01-06T12:22:54;61557.44;;;-145.85;100.00
36010;BME280;22076;52.182;5.404;2024-01-06T12:25:27;61557.44;;;-145.85;100.00
36010;BME280;22076;52.182;5.404;2024-01-06T12:28:01;61557.44;;;-145.85;100.00
36010;BME280;22076;52.182;5.404;2024-01-06T12:30:30;61557.44;;;-145.85;100.00